createdAt,value
2022-07-29T00:00:09.987Z,58.03
2022-07-29T00:01:19.594Z,56.93
2022-07-29T00:02:10.968Z,56.02
2022-07-29T00:03:10.019Z,57.13
2022-07-29T00:04:09.961Z,56.63
2022-07-29T00:05:09.919Z,55.63
2022-07-29T00:06:09.920Z,54.90
2022-07-29T00:07:09.902Z,55.40
2022-07-29T00:08:12.491Z,57.30
2022-07-29T00:09:09.849Z,55.70
2022-07-29T00:10:09.833Z,55.40
2022-07-29T00:11:09.831Z,54.30
2022-07-29T00:12:09.821Z,56.00
2022-07-29T00:13:09.801Z,55.10
2022-07-29T00:14:09.783Z,56.20
2022-07-29T00:15:09.784Z,56.60
2022-07-29T00:16:09.811Z,55.70
2022-07-29T00:17:09.744Z,56.20
2022-07-29T00:18:09.742Z,56.50
2022-07-29T00:19:09.731Z,56.80
2022-07-29T00:20:09.703Z,56.20
2022-07-29T00:21:09.707Z,56.20
2022-07-29T00:22:09.684Z,56.50
2022-07-29T00:23:09.665Z,56.30
2022-07-29T00:24:09.651Z,56.20
2022-07-29T00:25:09.645Z,56.73
2022-07-29T00:26:09.635Z,56.83
2022-07-29T00:27:09.624Z,56.83
2022-07-29T00:28:09.592Z,56.73
2022-07-29T00:30:10.586Z,57.10
2022-07-29T00:31:09.610Z,56.60
2022-07-29T00:32:09.556Z,56.20
2022-07-29T00:33:09.546Z,56.10
2022-07-29T00:34:09.510Z,56.73
2022-07-29T00:35:09.507Z,56.90
2022-07-29T00:36:09.483Z,56.60
2022-07-29T00:37:09.477Z,56.40
2022-07-29T00:38:09.468Z,56.50
2022-07-29T00:39:09.457Z,56.20
2022-07-29T00:40:09.438Z,56.60
2022-07-29T00:41:09.417Z,56.30
2022-07-29T00:42:09.449Z,55.60
2022-07-29T00:43:09.399Z,54.90
2022-07-29T00:44:09.388Z,55.40
2022-07-29T00:45:09.371Z,55.70
2022-07-29T00:46:09.351Z,56.10
2022-07-29T00:47:09.415Z,56.60
2022-07-29T00:48:09.318Z,57.00
2022-07-29T00:49:09.358Z,55.52
2022-07-29T00:50:09.294Z,56.33
2022-07-29T00:51:09.289Z,56.43
2022-07-29T00:52:09.274Z,56.33
2022-07-29T00:53:09.273Z,56.02
2022-07-29T00:54:09.244Z,55.43
2022-07-29T00:55:09.233Z,55.43
2022-07-29T00:56:09.212Z,55.82
2022-07-29T00:57:09.224Z,57.23
2022-07-29T00:58:09.202Z,55.93
2022-07-29T00:59:09.176Z,56.63
2022-07-29T01:00:09.163Z,57.13
2022-07-29T01:01:09.239Z,57.83
2022-07-29T01:02:09.213Z,56.63
2022-07-29T01:03:09.153Z,55.65
2022-07-29T01:04:09.115Z,55.75
2022-07-29T01:05:09.105Z,56.45
2022-07-29T01:06:09.102Z,56.65
2022-07-29T01:07:09.078Z,58.56
2022-07-29T01:08:09.073Z,56.65
2022-07-29T01:09:09.046Z,56.15
2022-07-29T01:10:09.025Z,56.85
2022-07-29T01:11:09.023Z,56.76
2022-07-29T01:12:09.008Z,56.45
2022-07-29T01:13:09.005Z,57.35
2022-07-29T01:14:08.977Z,58.06
2022-07-29T01:15:08.979Z,57.15
2022-07-29T01:16:09.040Z,57.35
2022-07-29T01:17:08.942Z,57.26
2022-07-29T01:18:08.930Z,58.36
2022-07-29T01:19:08.906Z,58.16
2022-07-29T01:20:08.899Z,58.56
2022-07-29T01:21:08.877Z,58.29
2022-07-29T01:22:08.861Z,57.08
2022-07-29T01:23:08.867Z,57.39
2022-07-29T01:24:08.845Z,58.79
2022-07-29T01:25:08.831Z,58.59
2022-07-29T01:26:08.809Z,57.68
2022-07-29T01:27:08.793Z,56.48
2022-07-29T01:28:08.789Z,56.08
2022-07-29T01:29:08.780Z,55.78
2022-07-29T01:30:09.755Z,55.88
2022-07-29T01:31:08.774Z,55.98
2022-07-29T01:32:08.787Z,57.08
2022-07-29T01:33:09.734Z,57.18
2022-07-29T01:34:08.703Z,57.08
2022-07-29T01:35:08.681Z,58.89
2022-07-29T01:36:08.690Z,55.05
2022-07-29T01:37:08.660Z,55.05
2022-07-29T01:38:08.659Z,54.95
2022-07-29T01:39:08.638Z,55.05
2022-07-29T01:40:08.614Z,54.85
2022-07-29T01:41:08.612Z,55.55
2022-07-29T01:42:08.581Z,57.56
2022-07-29T01:43:08.602Z,57.76
2022-07-29T01:44:08.572Z,57.66
2022-07-29T01:45:08.557Z,57.46
2022-07-29T01:46:08.557Z,57.35
2022-07-29T01:47:08.533Z,57.98
2022-07-29T01:48:08.525Z,58.89
2022-07-29T01:49:08.574Z,58.69
2022-07-29T01:50:08.483Z,58.49
2022-07-29T01:51:08.479Z,58.59
2022-07-29T01:52:08.477Z,59.59
2022-07-29T01:53:08.455Z,60.10
2022-07-29T01:54:08.436Z,58.81
2022-07-29T01:55:08.427Z,58.92
2022-07-29T01:56:08.416Z,58.31
2022-07-29T01:57:08.386Z,60.12
2022-07-29T01:58:08.397Z,59.82
2022-07-29T01:59:08.357Z,59.62
2022-07-29T02:00:08.356Z,60.42
2022-07-29T02:01:08.340Z,60.82
2022-07-29T02:02:08.379Z,60.05
2022-07-29T02:03:08.324Z,60.15
2022-07-29T02:04:08.300Z,61.05
2022-07-29T02:05:08.311Z,60.25
2022-07-29T02:06:08.290Z,61.46
2022-07-29T02:07:08.260Z,62.69
2022-07-29T02:08:08.309Z,61.58
2022-07-29T02:09:08.498Z,61.99
2022-07-29T02:10:08.240Z,61.69
2022-07-29T02:11:08.219Z,62.29
2022-07-29T02:12:08.197Z,62.49
2022-07-29T02:13:08.202Z,60.98
2022-07-29T02:14:08.178Z,60.98
2022-07-29T02:15:08.152Z,60.68
2022-07-29T02:16:08.197Z,62.22
2022-07-29T02:17:08.148Z,62.32
2022-07-29T02:18:08.134Z,61.82
2022-07-29T02:19:08.125Z,62.32
2022-07-29T02:20:08.110Z,62.42
2022-07-29T02:21:15.153Z,62.72
2022-07-29T02:22:09.085Z,62.52
2022-07-29T02:23:08.063Z,63.22
2022-07-29T02:24:08.061Z,62.32
2022-07-29T02:25:08.035Z,62.95
2022-07-29T02:26:09.023Z,62.75
2022-07-29T02:27:08.005Z,62.95
2022-07-29T02:28:08.003Z,62.15
2022-07-29T02:29:07.985Z,64.56
2022-07-29T02:30:07.974Z,64.16
2022-07-29T02:31:07.981Z,63.59
2022-07-29T02:32:07.954Z,64.19
2022-07-29T02:33:07.937Z,64.36
2022-07-29T02:34:07.925Z,65.09
2022-07-29T02:35:07.905Z,64.96
2022-07-29T02:36:07.896Z,65.26
2022-07-29T02:37:07.883Z,64.86
2022-07-29T02:38:07.874Z,64.26
2022-07-29T02:39:07.860Z,64.06
2022-07-29T02:40:07.836Z,63.35
2022-07-29T02:41:07.832Z,62.95
2022-07-29T02:42:07.828Z,62.75
2022-07-29T02:43:07.799Z,63.15
2022-07-29T02:44:07.810Z,62.65
2022-07-29T02:45:07.787Z,63.76
2022-07-29T02:46:12.686Z,63.85
2022-07-29T02:47:08.759Z,63.45
2022-07-29T02:48:07.741Z,63.65
2022-07-29T02:49:07.798Z,63.39
2022-07-29T02:50:07.708Z,63.08
2022-07-29T02:51:07.711Z,63.79
2022-07-29T02:52:07.700Z,63.89
2022-07-29T02:53:07.679Z,64.69
2022-07-29T02:54:07.678Z,65.22
2022-07-29T02:55:07.660Z,64.42
2022-07-29T02:56:07.649Z,64.42
2022-07-29T02:57:07.693Z,65.62
2022-07-29T02:58:07.710Z,64.92
2022-07-29T02:59:07.627Z,64.02
2022-07-29T03:00:07.622Z,64.42
2022-07-29T03:01:08.642Z,64.12
2022-07-29T03:02:09.681Z,63.71
2022-07-29T03:03:08.562Z,64.42
2022-07-29T03:04:07.582Z,63.82
2022-07-29T03:05:07.619Z,63.71
2022-07-29T03:06:07.563Z,67.03
2022-07-29T03:07:07.581Z,64.52
2022-07-29T03:08:08.489Z,64.72
2022-07-29T03:09:12.527Z,65.02
2022-07-29T03:10:10.934Z,65.73
2022-07-29T03:11:07.484Z,65.12
2022-07-29T03:12:07.497Z,64.32
2022-07-29T03:13:07.509Z,66.53
2022-07-29T03:14:07.425Z,65.53
2022-07-29T03:15:07.410Z,65.02
2022-07-29T03:16:07.508Z,64.82
2022-07-29T03:17:07.424Z,65.33
2022-07-29T03:18:07.433Z,65.42
2022-07-29T03:19:07.449Z,66.53
2022-07-29T03:20:07.386Z,66.13
2022-07-29T03:21:07.354Z,66.23
2022-07-29T03:22:07.357Z,65.93
2022-07-29T03:23:07.369Z,66.13
2022-07-29T03:24:12.549Z,65.36
2022-07-29T03:25:08.338Z,66.03
2022-07-29T03:26:07.286Z,66.43
2022-07-29T03:27:07.296Z,65.83
2022-07-29T03:28:07.299Z,66.43
2022-07-29T03:29:07.205Z,66.36
2022-07-29T03:30:10.407Z,65.86
2022-07-29T03:31:07.304Z,65.86
2022-07-29T03:32:08.137Z,66.06
2022-07-29T03:33:13.618Z,66.87
2022-07-29T03:34:08.143Z,66.06
2022-07-29T03:35:07.169Z,66.47
2022-07-29T03:36:07.149Z,65.76
2022-07-29T03:37:07.278Z,66.27
2022-07-29T03:38:07.169Z,67.88
2022-07-29T03:39:07.073Z,68.88
2022-07-29T03:40:07.112Z,67.97
2022-07-29T03:42:17.269Z,66.16
2022-07-29T03:43:17.330Z,66.56
2022-07-29T03:44:17.647Z,66.56
2022-07-29T03:45:17.273Z,66.56
2022-07-29T03:46:17.286Z,66.77
2022-07-29T03:48:27.425Z,66.36
2022-07-29T03:49:27.448Z,65.96
2022-07-29T04:02:56.967Z,65.16
2022-07-29T04:03:57.097Z,65.26
2022-07-29T04:04:56.934Z,65.86
2022-07-29T04:05:56.903Z,64.35
2022-07-29T04:06:56.927Z,64.75
2022-07-29T04:07:57.847Z,65.16
2022-07-29T04:08:56.926Z,64.65
2022-07-29T04:09:56.876Z,66.77
2022-07-29T04:10:56.852Z,65.46
2022-07-29T04:12:03.511Z,64.45
2022-07-29T04:12:57.877Z,63.75
2022-07-29T04:13:56.755Z,65.16
2022-07-29T04:14:56.797Z,63.85
2022-07-29T04:15:56.811Z,65.06
2022-07-29T04:16:56.787Z,64.25
2022-07-29T04:17:56.815Z,65.36
2022-07-29T04:19:18.726Z,64.42
2022-07-29T04:19:56.701Z,64.02
2022-07-29T04:20:56.740Z,64.72
2022-07-29T04:21:56.718Z,64.42
2022-07-29T04:22:56.716Z,64.42
2022-07-29T04:23:56.729Z,63.21
2022-07-29T04:25:01.700Z,64.52
2022-07-29T04:25:57.706Z,64.22
2022-07-29T04:26:56.639Z,63.11
2022-07-29T04:27:56.650Z,63.71
2022-07-29T04:28:56.670Z,64.42
2022-07-29T04:29:57.594Z,64.12
2022-07-29T04:30:56.655Z,63.82
2022-07-29T04:31:56.579Z,64.22
2022-07-29T04:32:56.588Z,64.32
2022-07-29T04:33:56.671Z,64.52
2022-07-29T04:34:56.497Z,64.15
2022-07-29T04:35:56.539Z,65.36
2022-07-29T04:36:56.512Z,65.12
2022-07-29T04:37:56.522Z,65.46
2022-07-29T04:38:56.523Z,65.36
2022-07-29T04:39:56.422Z,65.86
2022-07-29T04:40:56.465Z,64.95
2022-07-29T04:41:58.423Z,66.36
2022-07-29T04:42:56.452Z,66.47
2022-07-29T04:43:56.548Z,66.87
2022-07-29T04:44:56.345Z,65.96
2022-07-29T04:45:56.481Z,65.56
2022-07-29T04:46:56.393Z,65.56
2022-07-29T04:47:56.405Z,66.90
2022-07-29T04:48:56.517Z,67.40
2022-07-29T04:49:56.287Z,66.90
2022-07-29T04:50:56.347Z,69.01
2022-07-29T04:51:56.293Z,66.80
2022-07-29T04:52:57.345Z,66.80
2022-07-29T04:53:56.254Z,67.80
2022-07-29T04:54:56.226Z,67.60
2022-07-29T04:55:56.223Z,66.70
2022-07-29T04:56:56.201Z,67.30
2022-07-29T04:57:56.222Z,68.01
2022-07-29T04:58:56.155Z,66.90
2022-07-29T04:59:56.152Z,67.71
2022-07-29T05:00:56.167Z,66.50
2022-07-29T05:01:56.192Z,67.60
2022-07-29T05:02:56.137Z,67.40
2022-07-29T05:04:00.317Z,66.50
2022-07-29T05:04:56.077Z,66.30
2022-07-29T05:05:56.137Z,67.20
2022-07-29T05:06:56.080Z,67.40
2022-07-29T05:07:56.037Z,67.40
2022-07-29T05:08:56.038Z,68.61
2022-07-29T05:09:56.009Z,69.32
2022-07-29T05:10:56.028Z,69.32
2022-07-29T05:11:56.008Z,68.41
2022-07-29T05:12:56.050Z,68.61
2022-07-29T05:13:55.999Z,67.50
2022-07-29T05:14:55.951Z,68.01
2022-07-29T05:15:55.985Z,68.31
2022-07-29T05:16:56.989Z,68.61
2022-07-29T05:17:55.921Z,68.24
2022-07-29T05:18:55.910Z,68.85
2022-07-29T05:19:55.902Z,68.65
2022-07-29T05:20:56.052Z,67.94
2022-07-29T05:21:55.862Z,67.63
2022-07-29T05:22:55.843Z,68.04
2022-07-29T05:23:56.823Z,68.85
2022-07-29T05:24:55.820Z,68.34
2022-07-29T05:25:55.822Z,69.62
2022-07-29T05:26:55.830Z,69.62
2022-07-29T05:27:55.774Z,69.52
2022-07-29T05:28:55.782Z,69.42
2022-07-29T05:29:55.757Z,68.71
2022-07-29T05:30:55.886Z,68.91
2022-07-29T05:31:55.764Z,68.71
2022-07-29T05:32:55.713Z,69.01
2022-07-29T05:33:55.723Z,69.92
2022-07-29T05:34:55.686Z,69.52
2022-07-29T05:36:00.175Z,70.73
2022-07-29T05:37:17.980Z,70.42
2022-07-29T05:37:55.645Z,70.19
2022-07-29T05:38:55.648Z,70.39
2022-07-29T05:39:56.523Z,71.60
2022-07-29T05:40:55.635Z,73.61
2022-07-29T05:41:55.594Z,72.00
2022-07-29T05:42:55.596Z,72.31
2022-07-29T05:43:55.575Z,72.00
2022-07-29T05:44:55.565Z,70.96
2022-07-29T05:45:55.609Z,71.16
2022-07-29T05:46:55.550Z,72.47
2022-07-29T05:47:55.515Z,74.79
2022-07-29T05:48:55.516Z,73.58
2022-07-29T05:49:55.478Z,73.38
2022-07-29T05:50:55.526Z,71.67
2022-07-29T05:51:55.470Z,71.94
2022-07-29T05:52:55.440Z,73.85
2022-07-29T05:53:55.448Z,71.63
2022-07-29T05:54:55.437Z,71.83
2022-07-29T05:55:55.429Z,71.73
2022-07-29T05:56:55.419Z,71.40
2022-07-29T05:57:55.390Z,69.89
2022-07-29T05:58:55.404Z,68.18
2022-07-29T05:59:55.361Z,68.28
2022-07-29T06:00:55.381Z,69.09
2022-07-29T06:01:55.397Z,69.99
2022-07-29T06:02:55.339Z,69.25
2022-07-29T06:03:55.407Z,69.25
2022-07-29T06:04:55.337Z,69.65
2022-07-29T06:05:55.301Z,68.25
2022-07-29T06:06:55.270Z,68.35
2022-07-29T06:07:55.253Z,67.85
2022-07-29T06:08:55.252Z,67.51
2022-07-29T06:09:55.223Z,68.92
2022-07-29T06:10:55.230Z,68.52
2022-07-29T06:11:55.201Z,67.82
2022-07-29T06:12:55.196Z,67.21
2022-07-29T06:13:55.163Z,66.47
2022-07-29T06:14:55.174Z,64.27
2022-07-29T06:15:55.196Z,63.46
2022-07-29T06:16:55.155Z,62.66
2022-07-29T06:18:00.578Z,63.84
2022-07-29T06:18:56.212Z,63.33
2022-07-29T06:19:55.105Z,63.93
2022-07-29T06:20:55.095Z,64.71
2022-07-29T06:21:55.088Z,63.60
2022-07-29T06:22:55.094Z,62.60
2022-07-29T06:23:55.101Z,62.37
2022-07-29T06:24:55.117Z,60.97
2022-07-29T06:25:55.023Z,62.07
2022-07-29T06:26:55.069Z,61.74
2022-07-29T06:27:55.034Z,60.74
2022-07-29T06:28:55.037Z,60.74
2022-07-29T06:29:55.042Z,61.41
2022-07-29T06:30:55.039Z,61.81
2022-07-29T06:31:54.985Z,63.71
2022-07-29T06:32:54.981Z,59.61
2022-07-29T06:33:54.967Z,61.21
2022-07-29T06:35:11.840Z,61.08
2022-07-29T06:35:55.879Z,61.18
2022-07-29T06:36:54.930Z,59.78
2022-07-29T06:37:55.276Z,62.48
2022-07-29T06:38:54.899Z,60.28
2022-07-29T06:39:59.307Z,66.19
2022-07-29T06:40:54.893Z,62.18
2022-07-29T06:41:54.849Z,61.08
2022-07-29T06:42:56.936Z,64.39
2022-07-29T06:43:55.299Z,65.78
2022-07-29T06:44:54.859Z,66.19
2022-07-29T06:45:54.982Z,63.58
2022-07-29T06:46:54.782Z,65.19
2022-07-29T06:47:54.770Z,64.98
2022-07-29T06:48:55.854Z,63.25
2022-07-29T06:49:54.777Z,66.36
2022-07-29T06:50:55.411Z,64.65
2022-07-29T06:51:54.720Z,68.46
2022-07-29T06:52:54.701Z,66.36
2022-07-29T06:53:59.671Z,65.86
2022-07-29T06:54:55.745Z,66.05
2022-07-29T06:55:55.829Z,64.95
2022-07-29T06:56:54.633Z,64.36
2022-07-29T06:57:54.635Z,65.25
2022-07-29T06:58:54.642Z,63.95
2022-07-29T06:59:54.667Z,61.55
2022-07-29T07:00:55.723Z,62.32
2022-07-29T07:01:54.572Z,59.72
2022-07-29T07:02:54.618Z,59.22
2022-07-29T07:03:54.570Z,61.79
2022-07-29T07:04:54.582Z,64.79
2022-07-29T07:05:54.586Z,60.39
2022-07-29T07:06:54.530Z,60.99
2022-07-29T07:07:54.486Z,59.06
2022-07-29T07:08:54.509Z,60.86
2022-07-29T07:09:55.156Z,60.36
2022-07-29T07:10:54.438Z,60.96
2022-07-29T07:11:54.433Z,58.14
2022-07-29T07:12:54.437Z,58.73
2022-07-29T07:13:58.060Z,58.24
2022-07-29T07:14:55.478Z,58.01
2022-07-29T07:15:54.458Z,58.41
2022-07-29T07:16:54.426Z,57.71
2022-07-29T07:17:54.345Z,57.11
2022-07-29T07:18:54.380Z,56.71
2022-07-29T07:20:15.360Z,56.41
2022-07-29T07:20:55.309Z,57.41
2022-07-29T07:21:54.320Z,56.71
2022-07-29T07:22:54.272Z,57.81
2022-07-29T07:23:56.372Z,56.91
2022-07-29T07:24:54.262Z,58.98
2022-07-29T07:26:15.312Z,58.88
2022-07-29T07:26:54.229Z,60.68
2022-07-29T07:27:54.324Z,60.48
2022-07-29T07:28:55.252Z,64.97
2022-07-29T07:30:15.238Z,57.98
2022-07-29T07:30:54.182Z,55.39
2022-07-29T07:31:58.957Z,55.86
2022-07-29T07:32:55.228Z,59.95
2022-07-29T07:33:54.164Z,59.35
2022-07-29T07:34:54.171Z,57.65
2022-07-29T07:35:55.192Z,60.22
2022-07-29T07:36:54.122Z,55.54
2022-07-29T07:37:54.084Z,56.43
2022-07-29T07:38:54.064Z,57.93
2022-07-29T07:39:54.147Z,57.63
2022-07-29T07:40:54.310Z,57.53
2022-07-29T07:41:56.094Z,60.39
2022-07-29T07:42:54.073Z,59.39
2022-07-29T07:43:53.995Z,58.50
2022-07-29T07:45:12.621Z,58.50
2022-07-29T07:45:55.084Z,57.60
2022-07-29T07:47:07.847Z,57.47
2022-07-29T07:47:57.121Z,56.87
2022-07-29T07:49:17.409Z,56.77
2022-07-29T07:49:54.010Z,56.15
2022-07-29T07:50:54.021Z,55.85
2022-07-29T07:51:54.018Z,57.75
2022-07-29T07:52:53.917Z,57.52
2022-07-29T07:53:54.935Z,56.92
2022-07-29T07:54:53.907Z,57.32
2022-07-29T07:56:09.866Z,54.43
2022-07-29T07:56:54.968Z,55.03
2022-07-29T07:57:53.877Z,57.82
2022-07-29T07:58:53.829Z,55.13
2022-07-29T07:59:53.802Z,54.93
2022-07-29T08:00:53.854Z,54.24
2022-07-29T08:01:56.253Z,54.93
2022-07-29T08:02:53.834Z,56.62
2022-07-29T08:03:53.761Z,55.43
2022-07-29T08:04:53.712Z,57.22
2022-07-29T08:05:53.773Z,54.73
2022-07-29T08:06:53.771Z,54.73
2022-07-29T08:07:53.793Z,54.63
2022-07-29T08:08:56.237Z,53.83
2022-07-29T08:09:53.692Z,53.14
2022-07-29T08:10:53.732Z,55.43
2022-07-29T08:11:53.710Z,55.33
2022-07-29T08:12:53.754Z,56.12
2022-07-29T08:13:53.662Z,56.72
2022-07-29T08:15:14.625Z,56.42
2022-07-29T08:15:53.586Z,55.93
2022-07-29T08:16:53.707Z,55.20
2022-07-29T08:17:53.656Z,55.10
2022-07-29T08:18:53.598Z,54.11
2022-07-29T08:19:53.564Z,53.71
2022-07-29T08:20:53.519Z,54.18
2022-07-29T08:21:54.029Z,55.67
2022-07-29T08:22:53.585Z,53.39
2022-07-29T08:24:00.667Z,54.58
2022-07-29T08:24:54.859Z,55.77
2022-07-29T08:25:54.957Z,54.28
2022-07-29T08:26:53.517Z,55.27
2022-07-29T08:27:53.517Z,55.87
2022-07-29T08:28:53.455Z,53.41
2022-07-29T08:29:53.433Z,54.41
2022-07-29T08:30:53.430Z,53.21
2022-07-29T08:31:53.664Z,54.11
2022-07-29T08:32:55.520Z,53.91
2022-07-29T08:33:53.383Z,53.81
2022-07-29T08:34:53.360Z,53.49
2022-07-29T08:35:53.362Z,54.38
2022-07-29T08:36:53.361Z,53.58
2022-07-29T08:37:53.369Z,53.49
2022-07-29T08:38:54.347Z,54.38
2022-07-29T08:39:53.271Z,53.86
2022-07-29T08:40:53.282Z,53.36
2022-07-29T08:41:56.741Z,53.76
2022-07-29T08:42:53.302Z,55.25
2022-07-29T08:43:53.305Z,54.95
2022-07-29T08:44:54.267Z,53.14
2022-07-29T08:45:53.264Z,53.23
2022-07-29T08:46:53.165Z,51.65
2022-07-29T08:47:53.242Z,52.44
2022-07-29T08:48:53.292Z,52.34
2022-07-29T08:49:53.180Z,52.22
2022-07-29T08:50:53.157Z,52.42
2022-07-29T08:51:53.198Z,52.31
2022-07-29T08:52:57.918Z,52.02
2022-07-29T08:53:54.123Z,51.70
2022-07-29T08:54:53.125Z,51.30
2022-07-29T08:55:54.114Z,50.70
2022-07-29T08:56:54.852Z,50.78
2022-07-29T08:57:54.575Z,50.09
2022-07-29T08:58:53.454Z,50.88
2022-07-29T08:59:53.034Z,50.65
2022-07-29T09:00:53.073Z,49.66
2022-07-29T09:01:53.464Z,51.35
2022-07-29T09:02:52.966Z,50.26
2022-07-29T09:03:53.095Z,51.52
2022-07-29T09:04:52.989Z,50.93
2022-07-29T09:05:52.948Z,50.83
2022-07-29T09:06:52.981Z,50.11
2022-07-29T09:07:52.950Z,50.01
2022-07-29T09:08:52.970Z,50.38
2022-07-29T09:09:52.913Z,49.49
2022-07-29T09:10:52.880Z,49.19
2022-07-29T09:11:53.330Z,49.37
2022-07-29T09:12:52.923Z,48.48
2022-07-29T09:13:53.837Z,48.68
2022-07-29T09:14:52.834Z,48.46
2022-07-29T09:15:52.811Z,48.85
2022-07-29T09:16:54.007Z,48.65
2022-07-29T09:17:52.822Z,49.35
2022-07-29T09:18:53.763Z,50.12
2022-07-29T09:19:52.764Z,48.93
2022-07-29T09:20:52.752Z,48.14
2022-07-29T09:21:52.773Z,48.53
2022-07-29T09:22:52.764Z,49.20
2022-07-29T09:23:52.689Z,47.81
2022-07-29T09:24:53.035Z,46.73
2022-07-29T09:25:53.083Z,47.42
2022-07-29T09:26:52.889Z,47.42
2022-07-29T09:27:53.372Z,46.93
2022-07-29T09:28:52.687Z,47.79
2022-07-29T09:29:55.917Z,47.40
2022-07-29T09:30:52.836Z,46.81
2022-07-29T09:31:52.685Z,45.89
2022-07-29T09:32:52.650Z,46.39
2022-07-29T09:33:52.645Z,46.07
2022-07-29T09:34:56.828Z,46.76
2022-07-29T09:37:03.798Z,46.25
2022-07-29T09:38:03.815Z,45.56
2022-07-29T09:39:03.835Z,46.03
2022-07-29T09:40:03.757Z,45.34
2022-07-29T09:41:05.766Z,45.12
2022-07-29T09:42:04.782Z,44.92
2022-07-29T09:43:03.758Z,43.84
2022-07-29T09:44:03.779Z,44.65
2022-07-29T09:45:03.678Z,45.43
2022-07-29T09:46:03.680Z,45.24
2022-07-29T09:47:04.746Z,45.36
2022-07-29T10:03:22.722Z,47.89
2022-07-29T10:04:22.564Z,48.78
2022-07-29T10:05:23.704Z,48.58
2022-07-29T10:06:22.677Z,48.36
2022-07-29T10:07:22.457Z,49.05
2022-07-29T10:08:22.454Z,48.07
2022-07-29T10:09:24.472Z,49.05
2022-07-29T10:10:22.705Z,48.34
2022-07-29T10:11:22.416Z,47.85
2022-07-29T10:12:22.845Z,50.02
2022-07-29T10:13:22.436Z,48.14
2022-07-29T10:14:23.429Z,48.83
2022-07-29T10:15:22.666Z,48.83
2022-07-29T10:16:22.340Z,49.03
2022-07-29T10:17:22.362Z,47.35
2022-07-29T10:18:22.338Z,49.52
2022-07-29T10:19:22.545Z,47.92
2022-07-29T10:20:22.338Z,49.69
2022-07-29T10:21:35.038Z,48.51
2022-07-29T10:22:50.708Z,47.33
2022-07-29T10:23:23.220Z,48.02
2022-07-29T10:24:22.260Z,46.74
2022-07-29T10:25:22.428Z,47.63
2022-07-29T10:26:22.298Z,47.80
2022-07-29T10:27:22.191Z,47.90
2022-07-29T10:28:22.360Z,48.27
2022-07-29T10:29:22.202Z,46.00
2022-07-29T10:30:22.360Z,47.21
2022-07-29T10:31:22.241Z,46.81
2022-07-29T10:32:22.116Z,46.89
2022-07-29T10:33:22.149Z,46.69
2022-07-29T10:34:22.122Z,46.40
2022-07-29T10:35:22.163Z,47.95
2022-07-29T10:36:22.141Z,46.08
2022-07-29T10:37:22.034Z,46.69
2022-07-29T10:38:22.054Z,47.38
2022-07-29T10:39:22.353Z,47.38
2022-07-29T10:40:22.104Z,46.12
2022-07-29T10:41:22.088Z,47.60
2022-07-29T10:42:29.820Z,49.40
2022-07-29T10:43:23.028Z,46.84
2022-07-29T10:44:23.301Z,47.72
2022-07-29T10:45:22.038Z,48.61
2022-07-29T10:46:22.058Z,47.55
2022-07-29T10:47:21.918Z,47.35
2022-07-29T10:48:22.204Z,48.56
2022-07-29T10:49:24.677Z,48.66
2022-07-29T10:50:22.887Z,49.65
2022-07-29T10:51:21.948Z,49.37
2022-07-29T10:52:30.118Z,50.26
2022-07-29T10:53:22.872Z,52.34
2022-07-29T10:54:21.902Z,50.98
2022-07-29T10:55:22.822Z,49.89
2022-07-29T10:56:22.799Z,50.59
2022-07-29T10:57:21.772Z,50.38
2022-07-29T10:58:21.883Z,49.79
2022-07-29T10:59:22.957Z,49.40
2022-07-29T11:00:21.820Z,49.89
2022-07-29T11:01:37.169Z,49.99
2022-07-29T11:02:41.401Z,52.46
2022-07-29T11:03:22.718Z,53.25
2022-07-29T11:04:21.730Z,50.90
2022-07-29T11:05:21.961Z,50.21
2022-07-29T11:06:26.444Z,50.71
2022-07-29T11:07:22.656Z,50.51
2022-07-29T11:08:26.001Z,52.09
2022-07-29T11:09:35.282Z,50.31
2022-07-29T11:10:22.624Z,50.90
2022-07-29T11:11:22.238Z,52.58
2022-07-29T11:12:21.677Z,53.08
2022-07-29T11:13:21.585Z,53.11
2022-07-29T11:14:26.562Z,52.01
2022-07-29T11:15:22.717Z,52.91
2022-07-29T11:16:21.630Z,53.80
2022-07-29T11:17:21.613Z,52.81
2022-07-29T11:18:21.514Z,52.31
2022-07-29T11:19:26.656Z,53.30
2022-07-29T11:20:22.586Z,52.48
2022-07-29T11:21:23.253Z,50.61
2022-07-29T11:22:22.499Z,52.39
2022-07-29T11:23:22.468Z,52.19
2022-07-29T11:24:29.112Z,52.29
2022-07-29T11:25:42.527Z,51.47
2022-07-29T11:26:23.195Z,53.75
2022-07-29T11:27:21.478Z,50.88
2022-07-29T11:28:22.383Z,52.63
2022-07-29T11:30:31.478Z,100.00
2022-07-29T11:31:31.528Z,100.00
2022-07-29T11:32:31.539Z,100.00
2022-07-29T11:34:32.423Z,100.00
2022-07-29T11:35:38.488Z,100.00
2022-07-29T11:36:32.551Z,100.00
2022-07-29T11:37:31.479Z,100.00
2022-07-29T11:38:31.745Z,100.00
2022-07-29T11:39:36.955Z,100.00
2022-07-29T11:40:32.362Z,100.00
2022-07-29T11:41:31.863Z,100.00
2022-07-29T11:42:34.423Z,100.00
2022-07-29T11:43:31.415Z,100.00
2022-07-29T11:44:31.322Z,100.00
2022-07-29T11:45:42.004Z,100.00
2022-07-29T11:46:32.276Z,100.00
2022-07-29T11:47:31.405Z,100.00
2022-07-29T11:48:32.601Z,100.00
2022-07-29T11:49:32.035Z,100.00
2022-07-29T11:50:31.221Z,100.00
2022-07-29T11:51:33.329Z,100.00
2022-07-29T11:52:31.286Z,100.00
2022-07-29T11:53:32.984Z,100.00
2022-07-29T11:54:31.325Z,100.00
2022-07-29T11:55:32.427Z,100.00
2022-07-29T11:56:31.143Z,100.00
2022-07-29T11:57:36.239Z,100.00
2022-07-29T11:58:31.210Z,100.00
2022-07-29T11:59:32.972Z,100.00
2022-07-29T12:01:04.444Z,100.00
2022-07-29T12:01:31.070Z,100.00
2022-07-29T12:02:37.120Z,100.00
2022-07-29T12:04:32.029Z,100.00
2022-07-29T12:05:36.494Z,100.00
2022-07-29T12:06:32.078Z,100.00
2022-07-29T12:07:01.472Z,100.00
2022-07-29T12:07:34.757Z,100.00
2022-07-29T12:08:32.010Z,100.00
2022-07-29T12:09:30.961Z,100.00
2022-07-29T12:10:31.964Z,100.00
2022-07-29T12:11:30.991Z,100.00
2022-07-29T12:12:30.922Z,100.00
2022-07-29T12:13:37.698Z,100.00
2022-07-29T12:14:52.931Z,100.00
2022-07-29T12:15:46.333Z,100.00
2022-07-29T12:16:31.999Z,100.00
2022-07-29T12:17:30.907Z,100.00
2022-07-29T12:18:30.854Z,100.00
2022-07-29T12:19:31.434Z,100.00
2022-07-29T12:20:30.846Z,100.00
2022-07-29T12:21:31.021Z,100.00
2022-07-29T12:22:30.809Z,100.00
2022-07-29T12:23:35.027Z,100.00
2022-07-29T12:24:30.787Z,100.00
2022-07-29T12:25:32.479Z,100.00
2022-07-29T12:26:30.767Z,100.00
2022-07-29T12:27:31.351Z,100.00
2022-07-29T12:28:30.753Z,100.00
2022-07-29T12:29:33.866Z,100.00
2022-07-29T12:30:31.709Z,100.00
2022-07-29T12:31:43.734Z,100.00
2022-07-29T12:32:31.724Z,100.00
2022-07-29T12:33:30.669Z,100.00
2022-07-29T12:34:30.668Z,100.00
2022-07-29T12:35:30.642Z,100.00
2022-07-29T12:36:30.658Z,100.00
2022-07-29T12:37:31.870Z,100.00
2022-07-29T12:38:31.611Z,100.00
2022-07-29T12:39:30.591Z,100.00
2022-07-29T12:40:30.583Z,100.00
2022-07-29T12:41:30.568Z,100.00
2022-07-29T12:42:30.560Z,100.00
2022-07-29T12:43:30.533Z,100.00
2022-07-29T12:44:30.530Z,100.00
2022-07-29T12:45:30.512Z,100.00
2022-07-29T12:46:30.547Z,100.00
2022-07-29T12:47:30.508Z,100.00
2022-07-29T12:48:30.474Z,100.00
2022-07-29T12:49:30.516Z,100.00
2022-07-29T12:50:31.458Z,100.00
2022-07-29T12:51:30.448Z,100.00
2022-07-29T12:52:30.428Z,100.00
2022-07-29T12:53:30.422Z,100.00
2022-07-29T12:54:30.411Z,100.00
2022-07-29T12:55:30.389Z,100.00
2022-07-29T12:56:42.920Z,100.00
2022-07-29T12:57:31.362Z,100.00
2022-07-29T12:58:30.360Z,100.00
2022-07-29T12:59:30.349Z,100.00
2022-07-29T13:00:30.371Z,100.00
2022-07-29T13:01:30.329Z,100.00
2022-07-29T13:02:30.360Z,100.00
2022-07-29T13:03:30.300Z,100.00
2022-07-29T13:04:31.290Z,100.00
2022-07-29T13:05:30.271Z,100.00
2022-07-29T13:06:30.272Z,100.00
2022-07-29T13:07:54.174Z,100.00
2022-07-29T13:08:31.232Z,100.00
2022-07-29T13:09:30.223Z,100.00
2022-07-29T13:10:30.214Z,100.00
2022-07-29T13:11:30.200Z,100.00
2022-07-29T13:12:30.192Z,100.00
2022-07-29T13:13:30.162Z,100.00
2022-07-29T13:14:30.391Z,100.00
2022-07-29T13:15:30.145Z,100.00
2022-07-29T13:16:30.252Z,100.00
2022-07-29T13:17:32.775Z,100.00
2022-07-29T13:18:30.113Z,100.00
2022-07-29T13:19:30.126Z,100.00
2022-07-29T13:20:30.101Z,100.00
2022-07-29T13:21:30.147Z,100.00
2022-07-29T13:22:30.225Z,100.00
2022-07-29T13:23:30.167Z,100.00